Time;durP1;ratioP1;P1;durP2;ratioP2;P2;SDS_P1;SDS_P2;PMS_P1;PMS_P2;Temp;Humidity;BMP_temperature;BMP_pressure;BME280_temperature;BME280_humidity;BME280_pressure;Samples;Min_cycle;Max_cycle;Signal;HPM_P1;HPM_P2
2021/06/20 00:01:03;;;;;;;13.63;8.50;;;24.00;62.80;;;;;;6069914;23;20022;-76
2021/06/20 00:03:30;;;;;;;13.63;8.75;;;24.00;63.50;;;;;;6070196;23;20002;-75
2021/06/20 00:06:01;;;;;;;13.07;7.97;;;24.00;63.70;;;;;;6095519;23;20440;-76
2021/06/20 00:08:27;;;;;;;14.10;7.78;;;24.00;63.70;;;;;;6094170;23;20057;-75
2021/06/20 00:10:54;;;;;;;9.55;6.22;;;23.90;63.80;;;;;;6095944;23;20356;-76
2021/06/20 00:13:20;;;;;;;10.38;7.68;;;23.90;63.70;;;;;;6096748;23;20340;-76
2021/06/20 00:15:48;;;;;;;10.48;7.22;;;23.90;63.70;;;;;;6047139;23;20018;-75
2021/06/20 00:18:18;;;;;;;12.38;7.93;;;23.90;63.60;;;;;;6070933;23;20034;-76
2021/06/20 00:20:47;;;;;;;10.77;7.63;;;23.80;63.50;;;;;;6095304;23;20026;-76
2021/06/20 00:23:14;;;;;;;12.70;8.73;;;23.80;63.90;;;;;;6071040;23;20014;-76
2021/06/20 00:25:40;;;;;;;13.25;7.80;;;23.70;64.00;;;;;;6096308;23;20014;-76
2021/06/20 00:28:07;;;;;;;13.63;8.02;;;23.70;63.50;;;;;;6095251;23;20013;-76
2021/06/20 00:30:36;;;;;;;11.80;7.70;;;23.70;63.90;;;;;;6094832;23;20022;-76
2021/06/20 00:33:02;;;;;;;13.15;8.18;;;23.60;64.00;;;;;;6071218;23;20014;-75
2021/06/20 00:35:29;;;;;;;16.88;8.82;;;23.60;63.70;;;;;;6096858;23;20025;-76
2021/06/20 00:37:55;;;;;;;10.02;8.13;;;23.70;64.50;;;;;;6094926;23;20337;-75
2021/06/20 00:40:23;;;;;;;14.02;8.55;;;23.60;64.60;;;;;;6071300;23;20054;-76
2021/06/20 00:42:50;;;;;;;13.13;8.50;;;23.60;64.60;;;;;;6095233;23;20073;-76
2021/06/20 00:45:20;;;;;;;12.27;7.22;;;23.60;64.50;;;;;;6095135;23;20018;-76
2021/06/20 00:47:47;;;;;;;13.05;7.95;;;23.40;63.90;;;;;;6070895;23;20017;-77
2021/06/20 00:50:14;;;;;;;12.32;7.60;;;23.30;64.30;;;;;;6071209;23;20067;-76
2021/06/20 00:52:41;;;;;;;10.98;7.07;;;23.20;63.90;;;;;;6070951;23;20348;-76
2021/06/20 00:55:10;;;;;;;11.80;8.00;;;23.10;64.20;;;;;;6071065;23;20070;-76
2021/06/20 00:57:36;;;;;;;10.98;7.75;;;23.10;64.30;;;;;;6096534;23;20081;-76
2021/06/20 01:00:09;;;;;;;12.63;7.43;;;23.00;64.50;;;;;;6095095;23;20023;-76
2021/06/20 01:02:36;;;;;;;13.27;8.52;;;23.00;64.50;;;;;;6070983;23;20017;-76
2021/06/20 01:05:07;;;;;;;10.85;7.60;;;22.90;64.50;;;;;;6071094;23;20094;-76
2021/06/20 01:07:34;;;;;;;12.52;7.43;;;22.80;65.30;;;;;;6094966;23;20038;-77
2021/06/20 01:10:01;;;;;;;12.50;7.75;;;22.80;65.50;;;;;;6095068;23;20021;-76
2021/06/20 01:12:27;;;;;;;13.82;7.88;;;22.80;65.70;;;;;;6095073;23;20013;-76
2021/06/20 01:14:53;;;;;;;11.85;7.80;;;22.80;65.60;;;;;;6096603;23;20155;-76
2021/06/20 01:17:20;;;;;;;11.38;7.55;;;22.80;65.60;;;;;;6095009;23;20057;-76
2021/06/20 01:19:48;;;;;;;11.32;7.90;;;22.80;65.60;;;;;;6094953;23;20019;-76
2021/06/20 01:22:34;;;;;;;9.32;7.22;;;22.80;65.70;;;;;;6071193;23;20018;-76
2021/06/20 01:25:05;;;;;;;12.27;8.02;;;22.80;65.70;;;;;;6070738;23;20046;-77
2021/06/20 01:27:53;;;;;;;13.55;7.78;;;22.80;65.80;;;;;;6070862;23;20007;-77
2021/06/20 01:30:23;;;;;;;11.50;7.78;;;22.80;65.90;;;;;;6096501;23;20073;-76
2021/06/20 01:32:52;;;;;;;11.93;7.80;;;22.70;66.00;;;;;;6095122;23;20010;-77
2021/06/20 01:35:19;;;;;;;11.13;7.53;;;22.70;66.10;;;;;;6095110;23;20442;-76
2021/06/20 01:37:46;;;;;;;12.05;8.32;;;22.70;66.10;;;;;;6070738;23;20015;-77
2021/06/20 01:40:15;;;;;;;13.02;7.95;;;22.70;66.20;;;;;;6070640;23;20061;-77
2021/06/20 01:42:43;;;;;;;9.82;7.75;;;22.70;66.40;;;;;;6094882;23;20034;-76
2021/06/20 01:45:11;;;;;;;13.80;9.32;;;22.70;66.50;;;;;;6094834;23;20029;-77
2021/06/20 01:47:38;;;;;;;16.52;9.18;;;22.70;66.50;;;;;;6094895;23;20010;-76
2021/06/20 01:50:10;;;;;;;12.27;8.80;;;22.70;66.60;;;;;;6098103;23;20069;-76
2021/06/20 01:52:37;;;;;;;11.38;7.97;;;22.70;66.70;;;;;;6072583;23;20010;-76
2021/06/20 01:55:05;;;;;;;11.60;8.45;;;22.60;66.50;;;;;;6096565;23;20339;-76
2021/06/20 01:57:34;;;;;;;14.57;8.43;;;22.60;66.70;;;;;;6072535;23;20095;-76
2021/06/20 02:00:21;;;;;;;12.15;8.23;;;22.60;66.80;;;;;;6072768;23;20470;-76
2021/06/20 02:02:47;;;;;;;13.80;7.82;;;22.60;66.60;;;;;;6072370;23;20011;-76
2021/06/20 02:05:14;;;;;;;16.88;8.65;;;22.60;67.00;;;;;;6096662;23;20018;-76
2021/06/20 02:07:41;;;;;;;12.30;8.00;;;22.50;67.10;;;;;;6072259;23;20013;-76
2021/06/20 02:10:27;;;;;;;14.88;8.13;;;22.50;66.50;;;;;;6072527;23;20021;-76
2021/06/20 02:12:54;;;;;;;12.30;8.02;;;22.50;66.30;;;;;;6072385;23;20014;-76
2021/06/20 02:15:20;;;;;;;11.43;7.93;;;22.50;67.00;;;;;;6098007;23;20085;-76
2021/06/20 02:17:47;;;;;;;10.00;7.30;;;22.50;67.10;;;;;;6072373;23;20036;-76
2021/06/20 02:20:18;;;;;;;11.13;7.72;;;22.40;66.90;;;;;;6072565;23;20029;-76
2021/06/20 02:22:47;;;;;;;15.40;7.28;;;22.40;66.60;;;;;;6096317;23;20006;-76
2021/06/20 02:25:16;;;;;;;10.35;7.40;;;22.30;66.50;;;;;;6096235;23;20027;-76
2021/06/20 02:27:44;;;;;;;13.45;7.60;;;22.20;66.40;;;;;;6096099;23;20026;-76
2021/06/20 02:30:11;;;;;;;13.93;8.38;;;22.20;66.60;;;;;;6072086;23;20069;-76
2021/06/20 02:32:38;;;;;;;12.57;8.88;;;22.20;66.50;;;;;;6072321;23;20013;-75
2021/06/20 02:35:08;;;;;;;15.13;9.18;;;22.20;67.10;;;;;;6097843;23;20061;-76
2021/06/20 02:37:35;;;;;;;15.30;8.55;;;22.20;67.20;;;;;;6097492;23;20045;-76
2021/06/20 02:40:03;;;;;;;12.75;8.50;;;22.20;67.20;;;;;;6072193;23;20022;-76
2021/06/20 02:42:31;;;;;;;12.18;8.30;;;22.20;67.40;;;;;;6071962;23;20019;-76
2021/06/20 02:44:57;;;;;;;13.00;8.48;;;22.20;66.80;;;;;;6071906;23;20018;-76
2021/06/20 02:47:25;;;;;;;13.50;8.32;;;22.20;67.50;;;;;;6072047;23;20014;-76
2021/06/20 02:49:51;;;;;;;14.38;8.05;;;22.10;67.60;;;;;;6072004;23;20352;-76
2021/06/20 02:52:17;;;;;;;15.02;9.23;;;22.20;67.80;;;;;;6097472;23;20002;-76
2021/06/20 02:54:50;;;;;;;18.63;9.50;;;22.20;67.80;;;;;;6096018;23;20050;-76
2021/06/20 02:57:36;;;;;;;14.80;8.77;;;22.20;67.80;;;;;;6097509;23;20306;-76
2021/06/20 03:00:05;;;;;;;17.40;9.27;;;22.20;67.80;;;;;;6071670;23;20058;-76
2021/06/20 03:02:32;;;;;;;12.23;8.57;;;22.10;68.10;;;;;;6095872;23;20365;-76
2021/06/20 03:04:58;;;;;;;13.85;8.50;;;22.10;69.20;;;;;;6071858;23;20344;-77
2021/06/20 03:07:25;;;;;;;14.15;8.85;;;22.10;67.80;;;;;;6095937;23;20373;-76
2021/06/20 03:09:52;;;;;;;11.40;8.32;;;22.10;68.40;;;;;;6047669;23;20022;-76
2021/06/20 03:12:19;;;;;;;12.82;8.70;;;22.10;68.30;;;;;;6097345;23;20036;-76
2021/06/20 03:14:47;;;;;;;14.15;9.00;;;22.10;68.40;;;;;;6071709;23;20026;-75
2021/06/20 03:17:15;;;;;;;20.15;8.90;;;22.10;68.30;;;;;;6071844;23;20219;-76
2021/06/20 03:19:43;;;;;;;12.38;9.18;;;22.10;68.20;;;;;;6071699;23;20022;-76
2021/06/20 03:22:09;;;;;;;12.32;9.20;;;22.10;68.50;;;;;;6095809;23;20468;-76
2021/06/20 03:24:41;;;;;;;12.95;8.95;;;22.10;68.60;;;;;;6071606;23;20440;-76
2021/06/20 03:27:09;;;;;;;12.60;9.48;;;22.10;68.80;;;;;;6095694;23;20017;-76
2021/06/20 03:29:35;;;;;;;17.17;9.38;;;22.10;68.70;;;;;;6071352;23;20017;-76
2021/06/20 03:32:02;;;;;;;13.75;9.15;;;22.20;68.90;;;;;;6071609;23;20015;-76
2021/06/20 03:34:31;;;;;;;13.75;8.38;;;22.20;68.30;;;;;;6097052;23;20492;-76
2021/06/20 03:36:57;;;;;;;12.48;9.02;;;22.20;68.80;;;;;;6097053;23;20014;-76
2021/06/20 03:39:24;;;;;;;12.48;9.23;;;22.20;68.10;;;;;;6071526;23;20064;-77
2021/06/20 03:41:50;;;;;;;14.77;8.60;;;22.20;68.00;;;;;;6095446;23;20057;-76
2021/06/20 03:44:16;;;;;;;12.02;7.70;;;22.20;68.50;;;;;;6071559;23;20019;-76
2021/06/20 03:46:43;;;;;;;15.85;8.85;;;22.20;67.70;;;;;;6095464;23;20011;-76
2021/06/20 03:49:09;;;;;;;17.65;8.45;;;22.20;68.20;;;;;;6095423;23;20038;-77
2021/06/20 03:51:35;;;;;;;15.95;8.02;;;22.20;68.10;;;;;;6047480;23;20011;-76
2021/06/20 03:54:02;;;;;;;14.35;8.70;;;22.30;68.10;;;;;;6071502;23;20014;-77
2021/06/20 03:56:29;;;;;;;12.20;8.55;;;22.10;68.30;;;;;;6047458;23;20463;-76
2021/06/20 03:58:55;;;;;;;16.25;8.40;;;22.10;68.40;;;;;;6096721;23;20073;-75
2021/06/20 04:01:22;;;;;;;14.40;7.63;;;22.00;67.80;;;;;;6071450;23;20349;-76
2021/06/20 04:03:48;;;;;;;12.27;7.70;;;22.00;68.30;;;;;;6071393;23;20398;-76
2021/06/20 04:06:14;;;;;;;11.45;7.18;;;22.00;67.70;;;;;;6097171;23;20041;-76
2021/06/20 04:08:41;;;;;;;15.57;8.30;;;22.00;68.20;;;;;;6071162;23;20057;-76
2021/06/20 04:11:07;;;;;;;10.63;7.95;;;22.00;68.10;;;;;;6071098;23;20047;-76
2021/06/20 04:13:34;;;;;;;12.82;7.60;;;22.00;68.20;;;;;;6071211;23;20400;-76
2021/06/20 04:16:00;;;;;;;13.88;8.10;;;22.00;68.20;;;;;;6047592;23;20026;-76
2021/06/20 04:18:26;;;;;;;28.15;8.18;;;21.90;67.80;;;;;;6071346;23;20054;-76
2021/06/20 04:20:53;;;;;;;13.18;8.43;;;21.90;67.90;;;;;;6071323;23;20377;-77
2021/06/20 04:23:19;;;;;;;16.73;8.65;;;22.00;68.20;;;;;;6096725;23;20062;-76
2021/06/20 04:25:46;;;;;;;16.52;9.43;;;21.90;69.10;;;;;;6071169;23;20444;-76
2021/06/20 04:28:13;;;;;;;12.85;9.50;;;21.90;69.50;;;;;;6071345;23;20038;-76
2021/06/20 04:30:39;;;;;;;13.95;9.43;;;21.90;69.70;;;;;;6070870;23;20019;-75
2021/06/20 04:33:05;;;;;;;15.80;9.85;;;22.00;69.80;;;;;;6096810;23;20007;-76
2021/06/20 04:35:32;;;;;;;18.77;11.02;;;22.10;70.10;;;;;;6096814;23;20025;-76
2021/06/20 04:37:58;;;;;;;19.35;11.13;;;22.20;70.00;;;;;;6071087;23;20014;-76
2021/06/20 04:40:25;;;;;;;20.90;12.40;;;22.20;70.00;;;;;;6071200;23;20459;-76
2021/06/20 04:45:37;;;;;;;17.95;11.65;;;22.40;70.20;;;;;;6095447;23;20028;-76
2021/06/20 04:48:05;;;;;;;21.52;12.05;;;22.50;70.30;;;;;;6071090;23;20010;-76
2021/06/20 04:50:31;;;;;;;23.52;12.75;;;22.60;70.00;;;;;;6071156;23;20082;-76
2021/06/20 04:52:57;;;;;;;17.77;12.70;;;22.70;70.30;;;;;;6047136;23;20014;-76
2021/06/20 04:55:23;;;;;;;16.80;12.68;;;22.80;70.30;;;;;;6070832;23;20092;-75
2021/06/20 04:57:50;;;;;;;17.85;12.63;;;22.80;70.20;;;;;;6096527;23;20227;-76
2021/06/20 05:00:16;;;;;;;20.65;12.88;;;22.90;70.50;;;;;;6096763;23;20022;-76
2021/06/20 05:02:43;;;;;;;19.83;13.10;;;22.90;69.80;;;;;;6096481;23;20010;-76
2021/06/20 05:05:10;;;;;;;24.10;13.65;;;23.00;70.50;;;;;;6046960;23;20078;-77
2021/06/20 05:07:37;;;;;;;22.88;13.25;;;23.10;70.60;;;;;;6070984;23;20053;-76
2021/06/20 05:10:05;;;;;;;15.52;10.30;;;23.10;71.10;;;;;;6094892;23;20027;-76
2021/06/20 05:12:31;;;;;;;16.85;11.65;;;23.10;71.00;;;;;;6047054;23;20014;-76
2021/06/20 05:14:57;;;;;;;15.75;11.82;;;23.10;71.20;;;;;;6070952;23;20022;-76
2021/06/20 05:17:24;;;;;;;22.65;12.88;;;23.20;70.80;;;;;;6070913;23;20444;-76
2021/06/20 05:19:50;;;;;;;14.52;10.40;;;23.30;70.70;;;;;;6070632;23;20038;-77
2021/06/20 05:22:18;;;;;;;20.42;11.20;;;23.40;70.70;;;;;;6071196;23;20037;-77
2021/06/20 05:24:45;;;;;;;18.50;10.50;;;23.40;70.70;;;;;;6098309;23;20052;-77
2021/06/20 05:27:12;;;;;;;14.70;11.05;;;23.50;70.30;;;;;;6096990;23;20065;-77
2021/06/20 05:29:39;;;;;;;16.40;10.70;;;23.50;70.90;;;;;;6048750;23;20026;-76
2021/06/20 05:32:06;;;;;;;17.05;11.35;;;23.50;70.80;;;;;;6098075;23;20053;-77
2021/06/20 05:34:32;;;;;;;14.63;12.02;;;23.50;70.70;;;;;;6048542;23;20014;-76
2021/06/20 05:36:58;;;;;;;15.00;10.85;;;23.60;70.40;;;;;;6096777;23;20030;-77
2021/06/20 05:39:25;;;;;;;15.15;11.32;;;23.60;70.30;;;;;;6098166;23;20033;-77
2021/06/20 05:41:51;;;;;;;15.13;11.40;;;23.70;71.10;;;;;;6098104;23;20077;-77
2021/06/20 05:44:17;;;;;;;16.88;12.07;;;23.70;71.10;;;;;;6072626;23;20026;-75
2021/06/20 05:46:43;;;;;;;17.67;12.10;;;23.70;71.00;;;;;;6072582;23;20010;-76
2021/06/20 05:49:10;;;;;;;20.85;11.32;;;23.80;71.00;;;;;;6096582;23;20010;-76
2021/06/20 05:51:36;;;;;;;15.13;10.52;;;23.90;70.90;;;;;;6072696;23;20013;-77
2021/06/20 05:54:02;;;;;;;13.90;11.13;;;24.00;70.70;;;;;;6072400;23;20045;-75
2021/06/20 05:56:29;;;;;;;17.73;11.57;;;24.20;70.60;;;;;;6072456;23;20015;-75
2021/06/20 05:58:55;;;;;;;14.15;10.10;;;24.20;70.10;;;;;;6072415;23;20014;-76
2021/06/20 06:01:21;;;;;;;13.93;10.45;;;24.30;69.80;;;;;;6097931;23;20013;-76
2021/06/20 06:03:48;;;;;;;14.73;10.82;;;24.40;69.60;;;;;;6072404;23;20010;-76
2021/06/20 06:06:14;;;;;;;18.83;10.85;;;24.40;68.90;;;;;;6096513;23;20053;-77
2021/06/20 06:08:40;;;;;;;17.15;12.40;;;24.50;69.20;;;;;;6097891;23;20073;-76
2021/06/20 06:11:07;;;;;;;16.83;11.95;;;24.70;68.90;;;;;;6072594;23;20066;-76
2021/06/20 06:13:33;;;;;;;15.48;11.55;;;24.70;68.70;;;;;;6072299;23;20045;-75
2021/06/20 06:15:59;;;;;;;18.02;11.90;;;24.80;68.50;;;;;;6072041;23;20531;-75
2021/06/20 06:18:25;;;;;;;14.35;10.20;;;25.00;68.30;;;;;;6097747;23;20051;-76
2021/06/20 06:20:52;;;;;;;13.27;10.18;;;25.10;68.00;;;;;;6096452;23;20022;-77
2021/06/20 06:23:18;;;;;;;14.73;11.23;;;25.30;67.60;;;;;;6096249;23;20337;-75
2021/06/20 06:25:44;;;;;;;14.40;11.20;;;25.30;67.00;;;;;;6072075;23;20404;-77
2021/06/20 06:28:11;;;;;;;20.50;10.73;;;25.30;67.30;;;;;;6072269;23;20016;-77
2021/06/20 06:30:37;;;;;;;14.27;10.38;;;25.40;66.50;;;;;;6071786;23;20046;-75
2021/06/20 06:33:05;;;;;;;13.18;10.40;;;25.40;66.90;;;;;;6072105;23;20041;-75
2021/06/20 06:35:31;;;;;;;18.88;11.70;;;25.50;66.30;;;;;;6071645;23;20511;-75
2021/06/20 06:37:58;;;;;;;15.95;9.98;;;25.60;66.50;;;;;;6072264;23;20458;-75
2021/06/20 06:40:24;;;;;;;17.95;11.68;;;25.80;65.20;;;;;;6071873;23;20101;-77
2021/06/20 06:42:51;;;;;;;15.23;9.63;;;25.80;64.80;;;;;;6071871;23;20006;-75
2021/06/20 06:45:17;;;;;;;14.50;10.45;;;26.00;65.50;;;;;;6071986;23;20097;-77
2021/06/20 06:47:43;;;;;;;15.57;11.43;;;26.10;65.20;;;;;;6097441;23;20010;-76
2021/06/20 06:50:10;;;;;;;13.82;10.27;;;26.20;64.10;;;;;;6097665;23;20029;-77
2021/06/20 06:52:37;;;;;;;19.48;11.40;;;26.40;63.90;;;;;;6071808;23;20014;-75
2021/06/20 06:55:05;;;;;;;16.42;10.82;;;26.50;63.20;;;;;;6095939;23;20022;-75
2021/06/20 06:57:33;;;;;;;16.58;10.02;;;26.60;63.10;;;;;;6095689;23;20455;-76
2021/06/20 07:00:00;;;;;;;15.32;10.05;;;26.80;62.60;;;;;;6072124;23;20341;-77
2021/06/20 07:02:26;;;;;;;13.00;10.25;;;26.90;62.20;;;;;;6071931;23;20010;-76
2021/06/20 07:04:52;;;;;;;17.58;10.13;;;27.10;62.50;;;;;;6097042;23;20019;-77
2021/06/20 07:07:19;;;;;;;15.65;9.43;;;27.20;61.60;;;;;;6071745;23;20011;-76
2021/06/20 07:09:45;;;;;;;14.43;10.35;;;27.40;61.40;;;;;;6097291;23;20025;-77
2021/06/20 07:12:12;;;;;;;15.88;9.90;;;27.50;61.10;;;;;;6095858;23;20006;-76
2021/06/20 07:14:38;;;;;;;13.35;9.82;;;27.60;59.70;;;;;;6071671;23;20022;-77
2021/06/20 07:17:06;;;;;;;14.38;9.63;;;27.80;59.80;;;;;;6047800;23;20021;-78
2021/06/20 07:19:34;;;;;;;16.27;11.75;;;27.90;59.10;;;;;;6095665;23;20018;-78
2021/06/20 07:22:01;;;;;;;19.83;12.40;;;28.00;58.20;;;;;;6072098;23;20011;-77
2021/06/20 07:24:27;;;;;;;22.65;12.63;;;28.10;58.30;;;;;;6095638;23;20033;-75
2021/06/20 07:26:54;;;;;;;39.10;24.42;;;28.20;58.50;;;;;;6097051;23;20442;-76
2021/06/20 07:29:20;;;;;;;32.22;21.92;;;28.40;57.10;;;;;;6071494;23;20106;-77
2021/06/20 07:31:47;;;;;;;32.65;19.92;;;28.50;57.20;;;;;;6096694;23;20347;-75
2021/06/20 07:34:14;;;;;;;22.08;14.70;;;28.50;56.60;;;;;;6071617;23;20026;-77
2021/06/20 07:36:40;;;;;;;21.77;13.63;;;28.60;56.50;;;;;;6071534;23;20065;-77
2021/06/20 07:39:09;;;;;;;14.90;11.55;;;28.70;55.70;;;;;;6096916;23;20021;-77
2021/06/20 07:41:35;;;;;;;20.48;11.10;;;28.80;56.40;;;;;;6071548;23;20013;-76
2021/06/20 07:44:02;;;;;;;11.45;9.43;;;28.90;56.00;;;;;;6071318;23;20030;-77
2021/06/20 07:46:28;;;;;;;13.07;10.38;;;29.00;55.60;;;;;;6096400;23;20054;-76
2021/06/20 07:48:54;;;;;;;14.43;9.70;;;29.20;55.60;;;;;;6096839;23;20018;-77
2021/06/20 07:51:21;;;;;;;13.70;9.52;;;29.20;55.20;;;;;;6071482;23;20081;-76
2021/06/20 07:53:47;;;;;;;14.48;10.07;;;29.30;54.80;;;;;;6071210;23;20340;-77
2021/06/20 07:56:14;;;;;;;15.60;9.82;;;29.50;54.50;;;;;;6096913;23;20519;-78
2021/06/20 07:58:40;;;;;;;16.88;9.77;;;29.60;54.40;;;;;;6096621;23;20042;-77
2021/06/20 08:01:06;;;;;;;11.68;9.52;;;29.80;54.10;;;;;;6097102;23;20065;-76
2021/06/20 08:03:34;;;;;;;11.80;9.15;;;29.80;53.50;;;;;;6095414;23;20010;-76
2021/06/20 08:06:00;;;;;;;18.88;10.98;;;29.90;53.00;;;;;;6096747;23;20026;-77
2021/06/20 08:08:26;;;;;;;11.85;9.43;;;30.10;53.70;;;;;;6096423;23;20017;-75
2021/06/20 08:10:52;;;;;;;14.32;10.07;;;30.20;53.00;;;;;;6096560;23;20381;-78
2021/06/20 08:13:19;;;;;;;14.65;9.35;;;30.30;52.60;;;;;;6070715;23;20010;-77
2021/06/20 08:15:46;;;;;;;13.75;9.25;;;30.40;52.10;;;;;;6070731;23;20353;-77
2021/06/20 08:18:12;;;;;;;15.00;9.63;;;30.50;51.80;;;;;;6071062;23;20073;-77
2021/06/20 08:20:38;;;;;;;12.43;9.57;;;30.70;51.50;;;;;;6096606;23;20026;-77
2021/06/20 08:23:04;;;;;;;13.90;9.35;;;30.80;51.20;;;;;;6094860;23;20023;-76
2021/06/20 08:25:31;;;;;;;12.23;9.02;;;30.90;50.40;;;;;;6070995;23;20024;-77
2021/06/20 08:27:57;;;;;;;11.98;9.07;;;31.10;50.00;;;;;;6071245;23;20017;-75
2021/06/20 08:30:23;;;;;;;11.65;8.70;;;31.20;49.20;;;;;;6094593;23;20392;-77
2021/06/20 08:32:50;;;;;;;11.07;8.90;;;31.20;47.90;;;;;;6096453;23;20006;-77
2021/06/20 08:35:18;;;;;;;16.00;8.80;;;31.30;48.50;;;;;;6096264;23;20018;-75
2021/06/20 08:37:45;;;;;;;14.73;8.77;;;31.60;48.30;;;;;;6096424;23;20014;-76
2021/06/20 08:40:12;;;;;;;14.25;9.10;;;31.90;47.30;;;;;;6047164;23;20333;-75
2021/06/20 08:42:39;;;;;;;9.57;7.38;;;32.10;47.70;;;;;;6070566;23;20006;-77
2021/06/20 08:45:07;;;;;;;13.10;8.25;;;32.30;46.40;;;;;;6096156;23;20018;-77
2021/06/20 08:47:52;;;;;;;19.08;9.50;;;32.30;45.80;;;;;;6071145;23;20356;-75
2021/06/20 08:50:18;;;;;;;24.85;8.82;;;32.50;46.80;;;;;;6094860;23;20440;-77
2021/06/20 08:52:45;;;;;;;13.35;9.00;;;32.70;45.40;;;;;;6096535;23;20066;-75
2021/06/20 08:55:13;;;;;;;10.43;7.40;;;32.90;44.70;;;;;;6096277;23;20015;-78
2021/06/20 08:57:42;;;;;;;12.43;8.90;;;33.00;44.50;;;;;;6097110;23;20440;-75
2021/06/20 09:00:27;;;;;;;13.10;8.70;;;33.20;44.40;;;;;;6096612;23;20322;-77
2021/06/20 09:03:12;;;;;;;14.32;8.82;;;33.20;44.30;;;;;;6073112;23;20010;-76
2021/06/20 09:05:39;;;;;;;20.63;9.35;;;33.10;44.00;;;;;;6096573;23;20410;-75
2021/06/20 09:09:01;;;;;;;16.67;7.88;;;33.10;43.40;;;;;;6072384;23;20014;-72
2021/06/20 09:11:35;;;;;;;10.70;8.05;;;33.10;43.90;;;;;;6098168;23;20010;-72
2021/06/20 09:14:10;;;;;;;16.58;8.15;;;33.20;43.00;;;;;;6098344;23;20020;-72
2021/06/20 09:17:04;;;;;;;44.88;9.40;;;33.40;43.00;;;;;;6072834;23;20042;-72
2021/06/20 09:19:33;;;;;;;15.43;8.52;;;33.50;43.20;;;;;;6098288;23;20090;-73
2021/06/20 09:22:06;;;;;;;15.43;8.57;;;33.70;43.00;;;;;;6072923;23;20042;-72
2021/06/20 09:24:32;;;;;;;11.30;8.02;;;34.00;43.00;;;;;;6049212;23;20019;-72
2021/06/20 09:27:01;;;;;;;14.35;7.90;;;34.20;42.20;;;;;;6072624;23;20014;-73
2021/06/20 09:29:46;;;;;;;21.38;8.73;;;34.40;41.80;;;;;;6072652;23;20018;-72
2021/06/20 09:32:13;;;;;;;11.48;8.15;;;34.80;41.70;;;;;;6097667;23;20014;-72
2021/06/20 09:34:59;;;;;;;10.85;7.70;;;35.00;40.30;;;;;;6071979;23;20026;-72
2021/06/20 09:37:28;;;;;;;20.15;8.38;;;35.10;40.10;;;;;;6072519;23;20491;-72
2021/06/20 09:39:54;;;;;;;28.42;8.77;;;35.20;40.20;;;;;;6098097;23;20326;-72
2021/06/20 09:42:21;;;;;;;13.52;8.57;;;35.40;40.50;;;;;;6096649;23;20086;-72
2021/06/20 09:44:53;;;;;;;11.82;7.45;;;35.60;39.70;;;;;;6098158;23;20267;-72
2021/06/20 09:47:22;;;;;;;13.90;7.72;;;35.80;38.50;;;;;;6072320;23;20503;-72
2021/06/20 09:50:08;;;;;;;10.65;7.63;;;35.80;38.80;;;;;;6096516;23;20917;-72
2021/06/20 09:52:36;;;;;;;9.50;7.68;;;35.80;38.30;;;;;;6072665;23;20018;-72
2021/06/20 09:55:21;;;;;;;11.05;8.48;;;36.10;38.00;;;;;;6072572;23;20443;-72
2021/06/20 09:57:48;;;;;;;11.55;7.65;;;36.20;38.00;;;;;;6098009;23;20496;-72
2021/06/20 10:00:15;;;;;;;11.82;7.78;;;36.30;37.50;;;;;;6097636;23;20026;-73
2021/06/20 10:02:43;;;;;;;11.13;7.93;;;36.20;37.90;;;;;;6097711;23;20006;-72
2021/06/20 10:05:13;;;;;;;10.02;7.47;;;36.10;38.20;;;;;;6096022;23;20019;-72
2021/06/20 10:07:40;;;;;;;9.48;8.02;;;36.00;37.70;;;;;;6071998;23;20472;-72
2021/06/20 10:10:09;;;;;;;15.30;7.68;;;35.90;36.80;;;;;;6071835;23;20022;-72
2021/06/20 10:12:36;;;;;;;12.07;7.78;;;36.00;37.60;;;;;;6072252;23;20017;-72
2021/06/20 10:15:11;;;;;;;13.98;8.43;;;36.30;36.90;;;;;;6072147;23;20086;-72
2021/06/20 10:17:42;;;;;;;8.70;7.45;;;36.60;36.40;;;;;;6072305;23;20389;-72
2021/06/20 10:20:13;;;;;;;11.77;8.23;;;37.00;35.80;;;;;;6072530;23;20124;-72
2021/06/20 10:22:47;;;;;;;9.68;7.30;;;37.20;35.40;;;;;;6072461;23;20015;-72
2021/06/20 10:25:40;;;;;;;11.07;7.18;;;37.30;35.30;;;;;;6097748;23;20069;-72
2021/06/20 10:28:30;;;;;;;14.85;7.80;;;37.50;34.80;;;;;;6096415;23;20025;-72
2021/06/20 10:31:32;;;;;;;13.18;8.23;;;38.00;34.60;;;;;;6097436;23;20093;-72
2021/06/20 10:33:58;;;;;;;8.73;7.57;;;39.10;34.00;;;;;;6072190;23;20078;-72
2021/06/20 10:36:24;;;;;;;15.27;7.13;;;39.70;32.40;;;;;;6097511;23;20056;-72
2021/06/20 10:38:52;;;;;;;10.25;7.35;;;39.90;31.10;;;;;;6097529;23;20115;-72
2021/06/20 10:41:36;;;;;;;8.95;6.53;;;40.20;31.10;;;;;;6097983;23;20019;-72
2021/06/20 10:44:03;;;;;;;8.77;6.63;;;40.60;30.20;;;;;;6072107;23;20038;-72
2021/06/20 10:46:31;;;;;;;15.77;6.90;;;40.80;28.70;;;;;;6047789;23;20448;-72
2021/06/20 10:48:58;;;;;;;11.73;6.93;;;41.20;28.90;;;;;;6071852;23;20321;-72
2021/06/20 10:51:24;;;;;;;11.77;6.75;;;42.00;27.80;;;;;;6095945;23;20072;-72
2021/06/20 10:53:52;;;;;;;12.23;6.38;;;42.70;26.60;;;;;;6071815;23;20003;-72
2021/06/20 10:56:38;;;;;;;7.70;6.25;;;43.40;25.20;;;;;;6096144;23;20022;-72
2021/06/20 10:59:04;;;;;;;10.43;6.00;;;44.00;24.80;;;;;;6097455;23;20340;-72
2021/06/20 11:01:42;;;;;;;9.20;6.38;;;44.30;24.00;;;;;;6097207;23;20010;-72
2021/06/20 11:04:09;;;;;;;12.40;6.28;;;44.30;24.20;;;;;;6095894;23;20014;-73
2021/06/20 11:06:35;;;;;;;9.77;7.28;;;44.50;24.10;;;;;;6097192;23;20014;-72
2021/06/20 11:09:22;;;;;;;9.27;7.25;;;44.80;23.20;;;;;;6071724;23;20050;-72
2021/06/20 11:11:52;;;;;;;11.40;6.50;;;45.10;23.50;;;;;;6097215;23;20081;-73
2021/06/20 11:14:20;;;;;;;12.77;6.88;;;45.50;23.30;;;;;;6097321;23;20097;-72
2021/06/20 11:17:08;;;;;;;10.35;7.28;;;45.70;22.60;;;;;;6095787;23;20368;-72
2021/06/20 11:19:35;;;;;;;8.50;6.78;;;46.20;22.70;;;;;;6072063;23;20022;-73
2021/06/20 11:22:03;;;;;;;7.60;6.80;;;47.00;21.50;;;;;;6071690;23;20433;-72
2021/06/20 11:24:32;;;;;;;11.38;7.00;;;47.70;20.50;;;;;;6071636;23;20023;-73
2021/06/20 11:27:20;;;;;;;10.52;7.13;;;48.00;21.20;;;;;;6097118;23;20017;-72
2021/06/20 11:30:09;;;;;;;9.13;7.43;;;47.70;21.40;;;;;;6071783;23;20052;-72
2021/06/20 11:32:36;;;;;;;8.40;7.28;;;48.20;20.70;;;;;;6097105;23;20020;-73
2021/06/20 11:35:25;;;;;;;14.73;7.45;;;48.80;19.90;;;;;;6097230;23;20336;-73
2021/06/20 11:37:53;;;;;;;11.68;7.57;;;49.10;20.60;;;;;;6095503;23;20455;-73
2021/06/20 11:40:38;;;;;;;9.48;7.50;;;49.20;19.70;;;;;;6097253;23;20325;-72
2021/06/20 11:43:04;;;;;;;8.25;7.45;;;48.80;20.40;;;;;;6047634;23;20341;-73
2021/06/20 11:45:33;;;;;;;8.20;7.28;;;48.60;20.50;;;;;;6097054;23;20045;-73
2021/06/20 11:48:03;;;;;;;12.10;7.82;;;48.50;20.70;;;;;;6071885;23;20440;-72
2021/06/20 11:50:49;;;;;;;8.80;7.60;;;48.30;20.30;;;;;;6071993;23;20322;-73
2021/06/20 11:53:21;;;;;;;11.75;6.85;;;48.40;21.00;;;;;;6071784;23;20080;-73
2021/06/20 11:55:51;;;;;;;10.07;7.95;;;48.50;19.60;;;;;;6097201;23;20014;-72
2021/06/20 11:58:18;;;;;;;9.65;8.10;;;48.90;19.70;;;;;;6096917;23;20467;-73
2021/06/20 12:00:46;;;;;;;8.63;7.38;;;49.30;19.80;;;;;;6071547;23;20021;-73
2021/06/20 12:03:34;;;;;;;15.63;8.13;;;49.40;19.30;;;;;;6071447;23;20010;-73
2021/06/20 12:06:02;;;;;;;12.52;7.45;;;49.60;20.10;;;;;;6097107;23;20018;-73
2021/06/20 12:08:34;;;;;;;8.50;6.90;;;50.10;19.30;;;;;;6071688;23;20326;-72
2021/06/20 12:11:00;;;;;;;9.35;7.75;;;50.30;19.50;;;;;;6071658;23;20007;-73
2021/06/20 12:13:26;;;;;;;8.30;7.50;;;50.50;19.30;;;;;;6096765;23;20010;-73
2021/06/20 12:16:11;;;;;;;22.70;8.48;;;50.70;18.80;;;;;;6097036;23;20014;-73
2021/06/20 12:18:38;;;;;;;;;;;50.60;19.20;;;;;;6097194;23;20066;-72
2021/06/20 12:21:05;;;;;;;12.98;7.45;;;50.80;19.30;;;;;;6071432;23;19920;-72
2021/06/20 12:23:34;;;;;;;10.90;8.02;;;51.30;18.30;;;;;;6071464;23;20014;-73
2021/06/20 12:26:01;;;;;;;10.80;8.15;;;51.50;18.80;;;;;;6095219;23;20014;-73
2021/06/20 12:28:29;;;;;;;22.48;7.78;;;51.50;17.90;;;;;;6095231;23;20500;-73
2021/06/20 12:30:56;;;;;;;9.40;7.47;;;51.50;18.20;;;;;;6094941;23;20093;-72
2021/06/20 12:33:26;;;;;;;8.85;7.95;;;51.50;18.30;;;;;;6071052;23;20006;-73
2021/06/20 12:36:11;;;;;;;9.55;8.27;;;51.10;18.20;;;;;;6096952;23;20033;-72
2021/06/20 12:38:38;;;;;;;11.55;8.48;;;50.40;19.50;;;;;;6047188;23;20474;-73
2021/06/20 12:41:17;;;;;;;11.18;7.78;;;50.30;19.30;;;;;;6097076;23;20154;-72
2021/06/20 12:43:58;;;;;;;12.10;7.15;;;50.00;20.10;;;;;;6095177;23;20017;-73
2021/06/20 12:46:43;;;;;;;10.65;8.05;;;49.40;20.20;;;;;;6096422;23;20497;-73
2021/06/20 12:49:12;;;;;;;8.82;7.93;;;48.90;20.50;;;;;;6096531;23;20010;-73